Dauntless Aviation
Airports North America Canada
CYWG
YWG

Winnipeg / James Armstrong Richardson International Airport

Winnipeg, CANADA

Airport Info
Suggest Updated Information for this Airport

Location

Latitude / Longitude: 49°54'35"N / 97°14'23"W
  49°54.6'N / 97°14.394'W
  49.9100 / -97.2399

Nearby radio navigation aids

WG WINNIPEG NDB. 76.5° 4.5nm from WG to field.
YWG WINNIPEG VORTAC. 165.1° 1.1nm from YWG to field.
ZHT FORKS NDB. 317.6° 5.8nm from ZHT to field.
ZWG STONEY NDB. 181.8° 4.8nm from ZWG to field.
ZWN DOWNS NDB. 128.6° 4.7nm from ZWN to field.
ZWW BOINE NDB. 5.2° 4.9nm from ZWW to field.

Runway Information

Runway 13 /31

Dimensions: 8700 x 200 ft.
Surface: ASP
 
Runway 13
Runway 31
Latitude: 49.913028 49.895169
Longitude: -97.2523 -97.227864
Elevation: 783 ft. 783 ft.
Runway true heading: 140.5 320.5
 

Runway 18 /36

Dimensions: 11000 x 200 ft.
Surface: ASP
 
Runway 18
Runway 36
Latitude: 49.924917 49.895106
Longitude: -97.234967 -97.241878
Elevation: 782 ft. 782 ft.
Runway true heading: 190.5 10.5
 

Instrument Procedures

  Airport Diagram
  Parking Area

IAPs (Instrument Approach Procedures)

  Low Visibility Procedures
  Central De-Icing Facility
Satellite photo at:
Airport distance calculator
From:
Weather Reports

METAR

CYWG

CYWG 230300Z 22004KT 15SM FEW034 OVC048 M11/M15 A3002 RMK SC2SC6 SLP186
CXWN
4.4nm E
CXWN 230300Z AUTO 21003KT M11/M14 RMK AO1 SLP185 T11091135 56010
CWNK
39.4nm SW
CWNK 230300Z AUTO 00000KT M15/M17 RMK AO1 T11501172

TAF

CYWG
TAF CYWG 222344Z 2300/2324 27006KT P6SM SCT020 TEMPO 2300/2301 BKN020 FM230100 VRB03KT P6SM BKN030 TEMPO 2301/2307 4SM -SN BKN020 FM230700 16006KT P6SM BKN030 BKN080 TEMPO 2307/2312 2SM -SN BR BKN006 OVC020 FM231200 16006KT P6SM OVC020 TEMPO 2312/2320 1SM -SN BR OVC006 FM232000 29008KT 4SM -SN OVC020 TEMPO 2320/2324 3/4SM -SHSN BLSN VV008 BECMG 2322/2324 34020G35KT RMK NXT FCST BY 230600Z
CYPG
39.7nm SW
TAF CYPG 221730Z 2218/2306 30010KT P6SM FEW040 TEMPO 2218/2219 BKN040 BECMG 2220/2222 27005KT FM222200 27005KT P6SM SCT025 TEMPO 2222/2303 BKN025 FM230300 VRB03KT P6SM OVC025 RMK NXT FCST BY 230000Z
Safelog

 

Dauntless Aviation

© 2007-2019 Dauntless Aviation, all rights reserved
Information provided via PilotNav comes from a variety of official and unofficial data sources. As errors are possible, do not use PilotNav for primary flight planning purposes. Verify any information that you receive via PilotNav with current and canonical charts and other official documents. The material in this database is subject to database copyrights held by Dauntless Aviation and may not be copied without the express permission of Dauntless Aviation - licenses for use of part of all of this data are available for purchase; enquire via the Dauntless Aviation helpdesk. A number of mechanisms and markers exist in the database to protect against and identify infringement / copyright. Automated queries against this website are stictly prohibited, and all activity is logged and analyzed.